Aviation Digital Data Service (ADDS)

Output produced by METARs form (0323 UTC 21 September 2017)
found at http://www.aviationweather.gov/adds/metars/
 
TAF MWCB 201700Z 2018/2118 07008KT 9999 FEW016 
     TEMPO 2100/2106 8000 SHRA SCT016CB
       
TAF MWCR 202300Z 2100/2124 05010KT 9999 FEW018 
     TEMPO 2110/2115 9000 SHRA SCT016CB